Terminal Aerodrome Forecast
Issued by NWS

Home | Current Version | Previous Version | Text Only | Print | Product List | Glossary On
Versions: 1 2 3 4 5 6 7 8 9 10 11 12 13 14 15 16 17 18 19 20 21 22
000
FTPQ31 PGUM 172300
TAFPQ
TAF

PTKK 172337Z 1800/1824 20004KT P6SM VCSH SCT012 BKN120=

USA.gov is the U.S. government's official web portal to all federal, state and local government web resources and services.